Time;durP1;ratioP1;P1;durP2;ratioP2;P2;SDS_P1;SDS_P2;PMS_P1;PMS_P2;Temp;Humidity;BMP_temperature;BMP_pressure;BME280_temperature;BME280_humidity;BME280_pressure;Samples;Min_cycle;Max_cycle;Signal;HPM_P1;HPM_P2
2023/02/20 00:00:23;;;;;;;5.05;1.40;;;13.10;58.90;;;;;;2304747;53;20955;-85
2023/02/20 00:02:49;;;;;;;3.50;1.42;;;13.10;58.80;;;;;;2542225;53;21023;-84
2023/02/20 00:05:15;;;;;;;3.80;1.52;;;13.10;58.80;;;;;;2536988;53;20969;-84
2023/02/20 00:07:42;;;;;;;3.30;1.30;;;13.10;58.80;;;;;;2302336;53;22140;-83
2023/02/20 00:10:08;;;;;;;2.90;1.20;;;13.00;58.70;;;;;;2541835;53;21991;-84
2023/02/20 00:12:34;;;;;;;2.80;1.20;;;13.00;58.80;;;;;;2306564;53;20927;-84
2023/02/20 00:15:01;;;;;;;4.68;1.52;;;13.00;58.80;;;;;;2541625;53;20919;-84
2023/02/20 00:17:27;;;;;;;3.65;1.33;;;13.00;58.80;;;;;;2542272;53;20959;-85
2023/02/20 00:19:54;;;;;;;4.37;1.23;;;13.00;58.70;;;;;;2541595;53;21946;-84
2023/02/20 00:22:23;;;;;;;4.07;1.30;;;13.00;58.70;;;;;;2542293;53;20935;-85
2023/02/20 00:24:49;;;;;;;5.32;1.70;;;13.00;59.30;;;;;;2542115;53;20982;-84
2023/02/20 00:27:16;;;;;;;4.55;1.67;;;12.80;58.50;;;;;;2541455;53;22009;-85
2023/02/20 00:29:45;;;;;;;4.28;1.20;;;13.00;58.70;;;;;;2306059;53;22044;-84
2023/02/20 00:32:12;;;;;;;2.60;1.15;;;13.00;58.60;;;;;;2305788;53;22178;-84
2023/02/20 00:34:38;;;;;;;3.40;1.42;;;12.90;58.60;;;;;;2306510;53;20951;-84
2023/02/20 00:37:04;;;;;;;2.90;1.20;;;12.90;58.50;;;;;;2541998;53;21007;-85
2023/02/20 00:39:31;;;;;;;3.97;1.15;;;12.90;58.60;;;;;;2305321;53;20911;-85
2023/02/20 00:41:57;;;;;;;4.45;1.40;;;12.90;58.60;;;;;;2305313;53;26261;-85
2023/02/20 00:44:24;;;;;;;3.42;1.30;;;12.90;58.60;;;;;;2305596;53;20982;-84
2023/02/20 00:46:50;;;;;;;3.25;1.08;;;12.80;58.50;;;;;;2306432;53;21102;-84
2023/02/20 00:49:16;;;;;;;3.97;1.30;;;12.80;58.40;;;;;;2541203;53;20939;-84
2023/02/20 00:51:43;;;;;;;3.60;1.37;;;12.80;58.40;;;;;;2541759;53;20991;-85
2023/02/20 00:54:09;;;;;;;3.45;1.45;;;12.80;58.40;;;;;;2541775;53;21030;-85
2023/02/20 00:56:35;;;;;;;3.92;1.60;;;12.70;58.20;;;;;;2542343;53;21438;-85
2023/02/20 00:59:02;;;;;;;3.95;1.60;;;12.60;58.00;;;;;;2541669;53;21014;-84
2023/02/20 01:01:28;;;;;;;4.28;1.80;;;12.60;58.00;;;;;;2542574;53;20946;-84
2023/02/20 01:03:54;;;;;;;3.47;1.45;;;12.60;58.00;;;;;;2542875;53;20985;-84
2023/02/20 01:06:21;;;;;;;3.25;1.33;;;12.50;57.90;;;;;;2306037;53;20970;-84
2023/02/20 01:08:47;;;;;;;4.40;1.73;;;12.50;57.90;;;;;;2305959;53;20962;-84
2023/02/20 01:11:13;;;;;;;3.50;1.27;;;12.40;57.80;;;;;;2542047;53;21087;-85
2023/02/20 01:13:40;;;;;;;3.80;1.50;;;12.40;57.80;;;;;;2542460;53;22255;-84
2023/02/20 01:16:06;;;;;;;4.82;1.77;;;12.20;57.70;;;;;;2306705;53;20950;-84
2023/02/20 01:18:32;;;;;;;2.80;1.20;;;12.20;57.70;;;;;;2542541;53;21984;-84
2023/02/20 01:20:59;;;;;;;4.03;1.33;;;12.10;57.70;;;;;;2542271;53;22020;-84
2023/02/20 01:23:25;;;;;;;3.20;1.27;;;12.00;57.70;;;;;;2542401;53;22059;-84
2023/02/20 01:25:51;;;;;;;3.95;1.20;;;11.90;57.60;;;;;;2306928;53;20975;-84
2023/02/20 01:28:18;;;;;;;2.60;1.02;;;11.90;57.70;;;;;;2542435;53;21074;-84
2023/02/20 01:30:44;;;;;;;3.33;1.00;;;11.80;57.60;;;;;;2306645;53;20959;-83
2023/02/20 01:33:11;;;;;;;3.33;1.00;;;11.80;57.70;;;;;;2542112;53;21069;-83
2023/02/20 01:35:37;;;;;;;2.78;1.10;;;11.70;57.70;;;;;;2543268;53;22055;-83
2023/02/20 01:38:06;;;;;;;2.78;0.95;;;11.60;57.70;;;;;;2543339;53;20995;-84
2023/02/20 01:40:33;;;;;;;4.10;1.02;;;11.60;57.80;;;;;;2543545;53;20967;-85
2023/02/20 01:43:00;;;;;;;3.58;1.00;;;11.50;57.70;;;;;;2544524;53;21031;-84
2023/02/20 01:45:32;;;;;;;3.95;1.48;;;11.50;57.80;;;;;;2308940;53;20979;-85
2023/02/20 01:47:58;;;;;;;3.62;1.12;;;11.40;57.90;;;;;;2309233;53;20951;-83
2023/02/20 01:50:40;;;;;;;2.42;0.85;;;11.40;57.90;;;;;;2546704;53;21105;-84
2023/02/20 01:53:09;;;;;;;3.20;0.90;;;11.30;57.80;;;;;;2547098;53;21030;-85
2023/02/20 01:55:51;;;;;;;2.85;0.90;;;11.30;58.00;;;;;;2545315;53;20975;-85
2023/02/20 01:58:21;;;;;;;3.33;0.88;;;11.20;57.90;;;;;;2544760;53;21574;-85
2023/02/20 02:00:47;;;;;;;2.42;1.05;;;11.20;58.00;;;;;;2544467;53;20946;-85
2023/02/20 02:03:17;;;;;;;3.70;1.08;;;11.10;57.90;;;;;;2544594;53;22011;-85
2023/02/20 02:05:45;;;;;;;4.40;1.17;;;11.10;58.00;;;;;;2282246;54;21026;-84
2023/02/20 02:08:11;;;;;;;2.92;0.93;;;11.00;58.00;;;;;;2543515;53;21059;-85
2023/02/20 02:10:46;;;;;;;2.75;1.10;;;11.00;58.00;;;;;;2307158;53;20943;-85
2023/02/20 02:13:15;;;;;;;2.80;1.00;;;10.90;58.00;;;;;;2542834;53;20975;-84
2023/02/20 02:15:41;;;;;;;3.40;1.02;;;10.90;58.00;;;;;;2543018;53;21102;-84
2023/02/20 02:18:38;;;;;;;3.90;1.10;;;10.90;58.10;;;;;;2543066;53;21033;-83
2023/02/20 02:22:44;;;;;;;2.85;0.95;;;10.80;58.00;;;;;;2542854;53;21038;-84
2023/02/20 02:31:47;;;;;;;3.40;1.20;;;10.80;58.00;;;;;;2542782;53;20983;-85
2023/02/20 02:36:23;;;;;;;4.90;1.30;;;10.70;57.80;;;;;;2538735;53;20992;-84
2023/02/20 02:39:18;;;;;;;4.53;0.93;;;10.60;57.90;;;;;;2541996;53;20962;-84
2023/02/20 02:48:34;;;;;;;3.22;1.23;;;10.60;58.10;;;;;;2505751;53;20927;-84
2023/02/20 02:51:12;;;;;;;3.17;1.20;;;10.50;58.00;;;;;;2541338;53;21978;-83
2023/02/20 02:53:38;;;;;;;2.75;1.02;;;10.40;58.00;;;;;;2305779;53;21985;-83
2023/02/20 02:56:20;;;;;;;3.40;1.50;;;10.30;58.10;;;;;;2541477;53;20955;-84
2023/02/20 02:58:49;;;;;;;4.00;1.42;;;10.30;58.30;;;;;;2506793;54;21044;-85
2023/02/20 03:01:16;;;;;;;3.20;1.35;;;10.30;58.40;;;;;;2536157;53;21070;-84
2023/02/20 03:03:43;;;;;;;6.80;1.65;;;10.30;58.50;;;;;;2542573;53;20963;-85
2023/02/20 03:06:17;;;;;;;4.20;1.83;;;10.20;58.50;;;;;;2306262;53;21966;-84
2023/02/20 03:08:56;;;;;;;3.75;1.67;;;10.20;58.60;;;;;;2542643;53;20966;-84
2023/02/20 03:11:23;;;;;;;6.28;2.15;;;10.20;58.60;;;;;;2536718;53;20964;-85
2023/02/20 03:17:19;;;;;;;5.32;2.08;;;10.10;58.50;;;;;;2542268;53;21469;-84
2023/02/20 03:19:53;;;;;;;3.45;1.48;;;10.10;58.50;;;;;;2542025;53;20967;-84
2023/02/20 03:22:52;;;;;;;5.03;1.52;;;10.00;58.60;;;;;;2542698;53;20986;-83
2023/02/20 03:25:32;;;;;;;4.43;1.65;;;10.00;58.60;;;;;;2542163;53;20986;-85
2023/02/20 03:28:19;;;;;;;3.72;1.58;;;10.00;58.70;;;;;;2542598;53;20939;-84
2023/02/20 03:31:07;;;;;;;5.75;1.42;;;10.00;58.70;;;;;;2542584;53;21047;-84
2023/02/20 03:44:58;;;;;;;5.43;1.50;;;9.90;59.80;;;;;;2543345;53;21086;-85
2023/02/20 03:47:26;;;;;;;2.70;1.10;;;9.90;59.80;;;;;;2543467;53;20985;-84
2023/02/20 03:49:53;;;;;;;3.35;1.20;;;9.90;60.00;;;;;;2542971;53;21026;-84
2023/02/20 03:52:19;;;;;;;3.65;1.27;;;9.90;59.90;;;;;;2543469;53;21313;-85
2023/02/20 03:54:46;;;;;;;2.50;1.02;;;9.90;59.90;;;;;;2543268;53;21995;-84
2023/02/20 03:58:14;;;;;;;3.47;1.40;;;9.90;59.70;;;;;;2543226;53;21544;-85
2023/02/20 04:00:45;;;;;;;3.28;1.17;;;9.90;60.00;;;;;;2543546;53;20986;-85
2023/02/20 04:03:22;;;;;;;3.85;1.42;;;9.90;59.90;;;;;;2543470;53;20994;-83
2023/02/20 04:05:51;;;;;;;5.03;1.27;;;9.90;59.90;;;;;;2308227;53;20987;-84
2023/02/20 04:08:27;;;;;;;4.62;1.50;;;9.90;60.00;;;;;;2307103;53;20954;-84
2023/02/20 04:11:05;;;;;;;4.00;1.58;;;9.80;59.90;;;;;;2537625;53;20964;-85
2023/02/20 04:13:32;;;;;;;4.72;1.40;;;9.90;60.00;;;;;;2542187;53;20975;-84
2023/02/20 04:15:59;;;;;;;3.70;1.37;;;9.90;60.00;;;;;;2543662;53;20982;-84
2023/02/20 04:18:27;;;;;;;4.05;1.50;;;9.80;60.00;;;;;;2543290;53;21136;-85
2023/02/20 04:20:54;;;;;;;5.25;1.65;;;9.80;60.00;;;;;;2543964;53;21022;-85
2023/02/20 04:23:22;;;;;;;3.45;1.62;;;9.80;60.00;;;;;;2543581;53;20987;-84
2023/02/20 04:26:03;;;;;;;5.00;1.67;;;9.80;60.00;;;;;;2306998;53;20959;-84
2023/02/20 04:28:29;;;;;;;4.82;1.70;;;9.80;60.00;;;;;;2543112;53;20960;-85
2023/02/20 04:30:56;;;;;;;3.22;1.40;;;9.80;60.00;;;;;;2542967;53;20959;-85
2023/02/20 04:33:22;;;;;;;3.42;1.52;;;9.80;60.00;;;;;;2544115;53;20944;-85
2023/02/20 04:35:49;;;;;;;3.70;1.40;;;9.80;60.10;;;;;;2543774;53;20971;-84
2023/02/20 04:38:15;;;;;;;3.95;1.50;;;9.80;60.10;;;;;;2543638;53;21082;-84
2023/02/20 04:40:44;;;;;;;3.35;1.65;;;9.80;60.00;;;;;;2544134;53;21022;-84
2023/02/20 04:43:10;;;;;;;4.15;1.58;;;9.80;60.10;;;;;;2308315;53;21030;-84
2023/02/20 04:45:36;;;;;;;4.87;1.45;;;9.80;60.10;;;;;;2544871;53;21038;-85
2023/02/20 04:48:03;;;;;;;5.12;1.70;;;9.80;59.90;;;;;;2544932;53;20951;-85
2023/02/20 04:50:33;;;;;;;8.32;3.20;;;9.70;59.90;;;;;;2543268;53;21877;-85
2023/02/20 04:52:59;;;;;;;8.07;2.50;;;9.70;59.80;;;;;;2544650;53;21920;-84
2023/02/20 04:55:26;;;;;;;9.45;3.50;;;9.70;59.80;;;;;;2543814;53;21481;-84
2023/02/20 04:57:52;;;;;;;11.27;4.78;;;9.70;59.70;;;;;;2545303;53;20923;-84
2023/02/20 05:00:20;;;;;;;10.90;4.50;;;9.70;59.70;;;;;;2544284;53;21994;-85
2023/02/20 05:02:47;;;;;;;8.68;3.72;;;9.60;59.60;;;;;;2544440;53;21081;-84
2023/02/20 05:05:23;;;;;;;10.13;4.12;;;9.50;59.30;;;;;;2544719;53;21030;-84
2023/02/20 05:07:56;;;;;;;5.43;2.30;;;9.60;59.50;;;;;;2544762;53;20951;-85
2023/02/20 05:10:23;;;;;;;4.32;1.87;;;9.50;59.50;;;;;;2537398;53;20988;-85
2023/02/20 05:12:49;;;;;;;5.22;1.83;;;9.50;59.30;;;;;;2541772;53;21006;-83
2023/02/20 05:15:16;;;;;;;4.37;1.95;;;9.50;59.50;;;;;;2545342;53;20943;-84
2023/02/20 05:17:42;;;;;;;3.60;1.37;;;9.50;59.50;;;;;;2544973;53;21027;-84
2023/02/20 05:20:10;;;;;;;4.50;1.70;;;9.40;59.40;;;;;;2308305;53;20939;-83
2023/02/20 05:22:36;;;;;;;3.80;1.60;;;9.40;59.60;;;;;;2545375;53;20966;-84
2023/02/20 05:25:03;;;;;;;3.60;1.70;;;9.40;59.30;;;;;;2545689;53;20947;-85
2023/02/20 05:27:32;;;;;;;3.58;1.58;;;9.40;59.60;;;;;;2545019;53;20975;-84
2023/02/20 05:29:59;;;;;;;3.85;1.67;;;9.30;59.60;;;;;;2545711;53;20943;-84
2023/02/20 05:32:28;;;;;;;2.97;1.27;;;9.30;59.30;;;;;;2546111;53;20923;-84
2023/02/20 05:34:54;;;;;;;4.78;2.03;;;9.30;59.60;;;;;;2309404;53;21106;-84
2023/02/20 05:37:21;;;;;;;4.57;1.55;;;9.20;59.50;;;;;;2546045;53;21034;-84
2023/02/20 05:39:48;;;;;;;3.87;1.70;;;9.20;59.50;;;;;;2545342;53;20962;-85
2023/02/20 05:42:14;;;;;;;4.60;2.25;;;9.20;59.00;;;;;;2536347;54;21454;-85
2023/02/20 05:44:41;;;;;;;5.37;1.90;;;9.20;59.20;;;;;;2309351;53;20982;-84
2023/02/20 05:47:07;;;;;;;4.53;1.35;;;9.10;59.20;;;;;;2546015;53;20986;-84
2023/02/20 05:49:37;;;;;;;3.78;1.58;;;9.10;59.10;;;;;;2545266;53;20951;-85
2023/02/20 05:52:08;;;;;;;3.35;1.60;;;9.00;59.00;;;;;;2309555;53;20967;-83
2023/02/20 05:54:35;;;;;;;2.83;1.25;;;9.00;59.30;;;;;;2310198;53;20910;-84
2023/02/20 05:57:05;;;;;;;3.47;1.40;;;9.00;59.20;;;;;;2545904;53;21552;-85
2023/02/20 05:59:38;;;;;;;4.18;1.17;;;9.00;59.50;;;;;;2536369;54;21076;-84
2023/02/20 06:02:04;;;;;;;4.03;1.25;;;8.90;59.90;;;;;;2546565;53;20991;-84
2023/02/20 06:04:31;;;;;;;4.10;1.20;;;8.90;59.60;;;;;;2546793;53;20963;-84
2023/02/20 06:06:57;;;;;;;4.28;1.67;;;8.90;59.80;;;;;;2547137;53;21026;-83
2023/02/20 06:09:24;;;;;;;4.00;1.50;;;8.90;60.40;;;;;;2546865;53;20908;-84
2023/02/20 06:11:52;;;;;;;3.65;1.35;;;8.90;59.60;;;;;;2540722;53;21022;-84
2023/02/20 06:14:19;;;;;;;3.25;1.60;;;9.00;60.00;;;;;;2542753;53;21342;-84
2023/02/20 06:16:45;;;;;;;4.05;1.23;;;8.90;60.00;;;;;;2546554;53;20994;-84
2023/02/20 06:19:21;;;;;;;3.80;1.48;;;8.90;59.90;;;;;;2546796;53;21899;-84
2023/02/20 06:21:47;;;;;;;6.53;1.70;;;8.90;60.20;;;;;;2310811;53;20983;-85
2023/02/20 06:24:14;;;;;;;3.28;1.27;;;8.90;60.30;;;;;;2547325;53;22098;-84
2023/02/20 06:26:40;;;;;;;2.62;1.30;;;9.00;60.30;;;;;;2310753;53;20970;-85
2023/02/20 06:29:07;;;;;;;3.17;1.40;;;8.90;60.30;;;;;;2547333;53;20955;-85
2023/02/20 06:31:33;;;;;;;2.85;1.20;;;8.90;60.00;;;;;;2311860;53;21043;-85
2023/02/20 06:34:00;;;;;;;2.90;1.37;;;9.00;60.10;;;;;;2547887;53;20967;-85
2023/02/20 06:36:33;;;;;;;3.22;1.17;;;8.90;59.80;;;;;;2546537;53;21039;-85
2023/02/20 06:38:59;;;;;;;2.50;1.00;;;8.80;60.00;;;;;;2546701;53;20934;-84
2023/02/20 06:41:26;;;;;;;3.28;1.40;;;8.80;59.80;;;;;;2546467;53;20959;-85
2023/02/20 06:43:55;;;;;;;3.15;1.33;;;8.80;59.60;;;;;;2546113;53;22131;-84
2023/02/20 06:46:22;;;;;;;3.33;1.25;;;8.80;59.80;;;;;;2310696;53;20958;-85
2023/02/20 06:48:54;;;;;;;4.37;1.52;;;8.80;59.80;;;;;;2546067;53;20970;-85
2023/02/20 06:51:25;;;;;;;3.22;1.60;;;8.80;59.90;;;;;;2545651;53;21066;-84
2023/02/20 06:53:52;;;;;;;3.53;1.55;;;8.80;59.80;;;;;;2545216;53;21054;-86
2023/02/20 06:56:20;;;;;;;5.28;1.60;;;8.70;59.60;;;;;;2545384;53;21803;-85
2023/02/20 06:58:47;;;;;;;4.85;2.15;;;8.70;59.80;;;;;;2545267;53;21910;-85
2023/02/20 07:01:14;;;;;;;4.05;1.98;;;8.80;59.90;;;;;;2545496;53;20951;-85
2023/02/20 07:03:41;;;;;;;3.42;1.73;;;8.70;59.80;;;;;;2545558;53;20950;-84
2023/02/20 07:06:08;;;;;;;3.58;1.50;;;8.70;59.70;;;;;;2546763;53;20967;-85
2023/02/20 07:08:34;;;;;;;6.55;2.12;;;8.70;59.50;;;;;;2547077;53;21026;-84
2023/02/20 07:11:00;;;;;;;7.03;2.95;;;8.60;59.60;;;;;;2547532;53;21385;-84
2023/02/20 07:13:27;;;;;;;10.75;3.78;;;8.70;59.70;;;;;;2547138;53;20934;-85
2023/02/20 07:15:53;;;;;;;7.35;3.55;;;8.60;59.60;;;;;;2547000;53;21577;-84
2023/02/20 07:18:22;;;;;;;9.20;4.18;;;8.60;59.70;;;;;;2546902;53;20939;-85
2023/02/20 07:20:50;;;;;;;10.32;4.70;;;8.70;59.70;;;;;;2538933;53;21008;-84
2023/02/20 07:23:16;;;;;;;16.55;6.62;;;8.50;59.70;;;;;;2543332;53;21078;-84
2023/02/20 07:25:43;;;;;;;16.42;6.47;;;8.50;59.60;;;;;;2538520;53;20927;-84
2023/02/20 07:28:09;;;;;;;14.00;5.40;;;8.50;59.90;;;;;;2537866;53;20963;-84
2023/02/20 07:30:36;;;;;;;16.17;6.68;;;8.50;60.00;;;;;;2536699;53;20920;-83
2023/02/20 07:33:02;;;;;;;17.65;6.85;;;8.50;60.10;;;;;;2537135;53;20990;-84
2023/02/20 07:35:29;;;;;;;18.80;7.15;;;8.50;60.10;;;;;;2537946;53;20948;-84
2023/02/20 07:37:55;;;;;;;12.68;5.55;;;8.50;60.20;;;;;;2302146;53;21003;-84
2023/02/20 07:40:21;;;;;;;13.57;5.45;;;8.50;60.30;;;;;;2301190;53;20931;-84
2023/02/20 07:42:47;;;;;;;12.40;4.68;;;8.50;60.30;;;;;;2540667;53;20950;-84
2023/02/20 07:45:14;;;;;;;12.82;4.57;;;8.50;60.10;;;;;;2542675;53;20923;-85
2023/02/20 07:47:43;;;;;;;9.93;4.40;;;8.50;60.40;;;;;;2313628;53;20978;-84
2023/02/20 07:50:10;;;;;;;10.13;4.28;;;8.60;61.30;;;;;;2545477;53;20972;-84
2023/02/20 07:52:36;;;;;;;8.43;3.62;;;8.70;60.50;;;;;;2540536;53;21794;-84
2023/02/20 07:55:04;;;;;;;9.65;4.53;;;8.60;60.50;;;;;;2547594;53;20923;-84
2023/02/20 07:57:31;;;;;;;12.52;3.90;;;8.60;60.80;;;;;;2548847;53;20947;-84
2023/02/20 07:59:57;;;;;;;8.27;4.20;;;8.60;60.80;;;;;;2538103;53;21055;-84
2023/02/20 08:02:26;;;;;;;7.30;3.50;;;8.60;61.00;;;;;;2547753;53;20990;-84
2023/02/20 08:04:53;;;;;;;8.10;4.12;;;8.70;61.10;;;;;;2537869;53;20992;-85
2023/02/20 08:07:19;;;;;;;6.90;3.45;;;8.70;61.10;;;;;;2546466;53;20987;-84
2023/02/20 08:09:46;;;;;;;8.48;4.22;;;8.70;61.30;;;;;;2544488;53;21067;-84
2023/02/20 08:12:12;;;;;;;8.65;3.65;;;8.90;61.40;;;;;;2544884;53;22053;-84
2023/02/20 08:14:40;;;;;;;7.25;3.22;;;8.80;61.40;;;;;;2543693;54;20927;-85
2023/02/20 08:17:06;;;;;;;5.65;2.95;;;8.90;61.60;;;;;;2545434;53;21554;-84
2023/02/20 08:19:32;;;;;;;6.95;2.92;;;8.90;61.70;;;;;;2546681;53;20978;-85
2023/02/20 08:21:59;;;;;;;6.15;2.85;;;9.00;62.00;;;;;;2548304;53;21360;-84
2023/02/20 08:24:25;;;;;;;6.20;3.10;;;9.10;62.40;;;;;;2311689;53;21597;-85
2023/02/20 08:26:52;;;;;;;5.72;2.37;;;9.10;62.70;;;;;;2547438;53;20939;-84
2023/02/20 08:29:18;;;;;;;5.22;2.20;;;9.20;62.90;;;;;;2549061;53;20955;-84
2023/02/20 08:31:45;;;;;;;6.18;2.25;;;9.30;63.10;;;;;;2549139;53;20911;-84
2023/02/20 08:34:11;;;;;;;5.20;2.22;;;9.40;63.50;;;;;;2548951;53;21338;-83
2023/02/20 08:36:39;;;;;;;7.03;2.42;;;9.60;63.80;;;;;;2548236;53;20989;-84
2023/02/20 08:39:05;;;;;;;5.85;2.70;;;9.70;63.90;;;;;;2546051;53;21022;-84
2023/02/20 08:41:32;;;;;;;5.47;2.30;;;9.80;64.00;;;;;;2546207;53;20916;-84
2023/02/20 08:44:01;;;;;;;6.45;2.35;;;9.90;64.00;;;;;;2548690;53;20927;-84
2023/02/20 08:46:28;;;;;;;4.78;2.03;;;10.10;62.90;;;;;;2548541;53;20935;-83
2023/02/20 08:48:54;;;;;;;4.07;2.20;;;10.20;63.00;;;;;;2546097;53;21070;-84
2023/02/20 08:51:21;;;;;;;4.35;2.22;;;10.40;62.90;;;;;;2546522;53;20942;-83
2023/02/20 08:53:47;;;;;;;4.25;2.17;;;10.60;62.90;;;;;;2309127;53;21037;-84
2023/02/20 08:56:18;;;;;;;5.07;2.20;;;10.70;62.90;;;;;;2545411;53;21018;-85
2023/02/20 08:58:44;;;;;;;5.60;1.90;;;10.80;62.80;;;;;;2544398;53;21567;-84
2023/02/20 09:01:10;;;;;;;5.55;2.20;;;11.00;62.80;;;;;;2545320;53;21046;-84
2023/02/20 09:03:40;;;;;;;4.47;1.90;;;11.10;62.80;;;;;;2544645;53;21389;-85
2023/02/20 09:06:07;;;;;;;4.47;1.90;;;11.20;62.80;;;;;;2545121;53;20967;-84
2023/02/20 09:08:33;;;;;;;5.07;2.35;;;11.40;62.80;;;;;;2309434;53;21192;-82
2023/02/20 09:10:59;;;;;;;6.95;3.03;;;11.50;62.80;;;;;;2308593;53;21042;-84
2023/02/20 09:13:26;;;;;;;5.28;2.45;;;11.60;62.60;;;;;;2545725;53;21094;-84
2023/02/20 09:15:52;;;;;;;4.80;2.08;;;11.70;62.60;;;;;;2544770;53;20971;-84
2023/02/20 09:18:18;;;;;;;5.32;2.45;;;11.80;62.60;;;;;;2311349;53;20954;-83
2023/02/20 09:20:44;;;;;;;8.98;3.45;;;12.00;62.80;;;;;;2308975;53;21043;-84
2023/02/20 09:23:11;;;;;;;6.85;2.65;;;12.10;62.90;;;;;;2547143;53;20955;-83
2023/02/20 09:25:44;;;;;;;6.30;3.33;;;12.20;62.80;;;;;;2547516;53;20938;-83
2023/02/20 09:28:11;;;;;;;5.05;2.90;;;12.30;63.00;;;;;;2310307;53;20994;-84
2023/02/20 09:30:37;;;;;;;5.65;2.60;;;12.50;63.10;;;;;;2545186;53;20943;-83
2023/02/20 09:33:04;;;;;;;5.50;2.97;;;12.60;63.30;;;;;;2545902;53;20974;-84
2023/02/20 09:35:30;;;;;;;5.68;3.15;;;12.70;63.40;;;;;;2310827;53;20978;-83
2023/02/20 09:37:56;;;;;;;5.72;2.67;;;12.90;63.60;;;;;;2546144;53;21353;-85
2023/02/20 09:40:24;;;;;;;5.75;3.05;;;13.00;63.60;;;;;;2546112;53;21030;-84
2023/02/20 09:43:44;;;;;;;5.53;2.90;;;13.20;63.70;;;;;;2546100;53;20957;-84
2023/02/20 09:46:18;;;;;;;4.93;2.28;;;13.40;63.20;;;;;;2546671;53;21173;-84
2023/02/20 09:49:28;;;;;;;4.87;2.50;;;13.60;63.80;;;;;;2308969;53;21102;-84
2023/02/20 09:51:58;;;;;;;6.20;2.50;;;13.80;63.40;;;;;;2309739;53;20971;-84
2023/02/20 09:55:00;;;;;;;7.35;2.75;;;14.00;64.10;;;;;;2546101;53;20978;-84
2023/02/20 09:57:26;;;;;;;5.47;2.80;;;14.10;63.30;;;;;;2546713;53;21109;-84
2023/02/20 10:00:11;;;;;;;5.43;2.75;;;14.30;63.80;;;;;;2309933;53;20990;-84
2023/02/20 10:02:51;;;;;;;5.37;2.70;;;14.50;63.50;;;;;;2545827;53;21078;-83
2023/02/20 10:05:22;;;;;;;4.57;2.40;;;14.70;64.10;;;;;;2546933;53;21054;-84
2023/02/20 10:07:49;;;;;;;5.60;3.15;;;14.80;63.10;;;;;;2545879;53;20951;-84
2023/02/20 10:10:37;;;;;;;4.60;2.37;;;14.90;62.90;;;;;;2547601;53;20966;-84
2023/02/20 10:13:58;;;;;;;5.12;2.28;;;15.00;62.20;;;;;;2546258;53;21126;-84
2023/02/20 10:16:53;;;;;;;3.55;2.00;;;15.20;62.50;;;;;;2546073;53;20978;-84
2023/02/20 10:19:48;;;;;;;4.00;1.98;;;15.30;62.80;;;;;;2542607;53;21365;-83
2023/02/20 10:22:24;;;;;;;4.55;2.05;;;15.50;63.90;;;;;;2308857;53;21468;-84
2023/02/20 10:25:07;;;;;;;4.90;1.85;;;15.60;63.50;;;;;;2548339;53;20943;-82
2023/02/20 10:28:09;;;;;;;5.37;2.03;;;15.80;63.30;;;;;;2311027;53;21030;-82
2023/02/20 10:30:39;;;;;;;4.80;1.92;;;16.00;62.50;;;;;;2546358;53;21508;-85
2023/02/20 10:33:28;;;;;;;3.92;2.15;;;16.30;63.60;;;;;;2545899;53;21010;-82
2023/02/20 10:36:57;;;;;;;6.30;2.37;;;16.40;62.10;;;;;;2309298;54;20983;-82
2023/02/20 10:39:23;;;;;;;5.97;1.95;;;16.60;61.10;;;;;;2314371;53;21365;-84
2023/02/20 10:42:16;;;;;;;5.75;2.00;;;16.70;62.40;;;;;;2308554;53;20983;-83
2023/02/20 10:45:08;;;;;;;7.50;3.17;;;16.90;61.50;;;;;;2545411;53;21199;-84
2023/02/20 10:47:52;;;;;;;4.47;2.40;;;17.00;60.00;;;;;;2309253;53;21030;-83
2023/02/20 10:51:23;;;;;;;6.40;1.73;;;17.10;60.20;;;;;;2545971;53;21057;-81
2023/02/20 10:54:02;;;;;;;4.22;1.70;;;17.20;59.60;;;;;;2504153;54;20975;-84
2023/02/20 10:56:35;;;;;;;5.60;1.87;;;17.30;59.80;;;;;;2309710;53;20987;-84
2023/02/20 10:59:19;;;;;;;4.22;1.85;;;17.40;59.90;;;;;;2308633;53;21577;-82
2023/02/20 11:01:49;;;;;;;4.20;1.77;;;17.50;59.70;;;;;;2545382;53;21587;-84
2023/02/20 11:04:36;;;;;;;5.15;1.80;;;17.50;59.60;;;;;;2546057;53;20959;-83
2023/02/20 11:07:13;;;;;;;4.07;1.73;;;17.60;58.90;;;;;;2541239;53;21024;-84
2023/02/20 11:09:40;;;;;;;4.65;1.90;;;17.70;58.90;;;;;;2305947;53;22301;-83
2023/02/20 11:12:07;;;;;;;4.32;1.80;;;17.80;59.30;;;;;;2545874;53;21495;-84
2023/02/20 11:14:41;;;;;;;3.45;1.70;;;17.80;59.20;;;;;;2545859;53;21058;-82
2023/02/20 11:17:21;;;;;;;7.90;2.17;;;17.90;58.50;;;;;;2309414;53;20982;-83
2023/02/20 11:19:55;;;;;;;4.75;1.70;;;18.00;58.10;;;;;;2545413;53;21038;-83
2023/02/20 11:22:43;;;;;;;3.80;1.77;;;18.00;58.40;;;;;;2546455;53;21920;-84
2023/02/20 11:25:15;;;;;;;4.95;2.00;;;18.10;57.30;;;;;;2546461;53;20998;-84
2023/02/20 11:27:41;;;;;;;4.07;1.87;;;18.20;58.10;;;;;;2309396;53;20959;-84
2023/02/20 11:30:28;;;;;;;5.35;1.98;;;18.30;58.30;;;;;;2546262;53;21265;-84
2023/02/20 11:33:04;;;;;;;5.20;1.70;;;18.30;57.50;;;;;;2546098;53;20994;-83
2023/02/20 11:35:33;;;;;;;5.37;1.65;;;18.40;57.80;;;;;;2546792;53;22065;-84
2023/02/20 11:38:48;;;;;;;4.03;1.95;;;18.50;58.20;;;;;;2308987;53;20955;-84
2023/02/20 11:41:35;;;;;;;3.40;1.58;;;18.50;56.70;;;;;;2549745;53;20991;-84
2023/02/20 11:45:15;;;;;;;4.20;1.60;;;18.60;56.60;;;;;;2309538;53;21070;-83
2023/02/20 11:47:41;;;;;;;3.25;1.15;;;18.70;56.60;;;;;;2542613;53;21039;-82
2023/02/20 11:50:26;;;;;;;4.68;1.60;;;18.70;57.90;;;;;;2539808;53;20966;-82
2023/02/20 11:53:03;;;;;;;3.15;1.33;;;18.70;57.60;;;;;;2546533;53;20996;-81
2023/02/20 11:55:30;;;;;;;2.80;1.20;;;18.80;56.80;;;;;;2547491;53;21058;-82
2023/02/20 11:57:56;;;;;;;3.40;1.50;;;18.80;57.30;;;;;;2546158;53;21006;-82
2023/02/20 12:00:24;;;;;;;4.00;1.40;;;18.80;57.10;;;;;;2545481;53;21050;-82
2023/02/20 12:03:03;;;;;;;3.37;1.50;;;18.90;56.90;;;;;;2545471;53;21705;-83
2023/02/20 12:06:51;;;;;;;3.30;1.48;;;18.90;56.60;;;;;;2309086;53;21042;-82
2023/02/20 12:09:23;;;;;;;2.72;1.20;;;19.00;55.70;;;;;;2546506;53;21192;-82
2023/02/20 12:11:49;;;;;;;4.57;1.70;;;19.10;57.00;;;;;;2308600;53;21050;-82
2023/02/20 12:14:16;;;;;;;3.30;1.17;;;19.20;57.10;;;;;;2546833;53;21529;-82
2023/02/20 12:17:20;;;;;;;3.97;1.50;;;19.20;56.90;;;;;;2546514;53;20990;-82
2023/02/20 12:20:47;;;;;;;3.85;1.40;;;19.30;55.70;;;;;;2309326;53;20995;-81
2023/02/20 12:23:31;;;;;;;4.15;1.48;;;19.30;55.30;;;;;;2547897;53;20974;-81
2023/02/20 12:26:23;;;;;;;3.40;1.30;;;19.40;55.40;;;;;;2549020;53;21015;-84
2023/02/20 12:29:27;;;;;;;3.60;1.23;;;19.30;55.50;;;;;;2550549;53;20945;-81
2023/02/20 12:34:49;;;;;;;2.75;0.98;;;19.30;55.10;;;;;;2547674;53;21517;-81
2023/02/20 12:41:12;;;;;;;3.60;1.27;;;19.30;55.20;;;;;;2546257;53;20975;-81
2023/02/20 12:45:17;;;;;;;2.47;0.95;;;19.40;55.50;;;;;;2309806;53;20970;-82
2023/02/20 12:47:43;;;;;;;4.03;1.37;;;19.30;55.10;;;;;;2545821;53;21042;-83
2023/02/20 12:50:34;;;;;;;3.78;1.37;;;19.30;55.90;;;;;;2545521;53;21423;-83
2023/02/20 12:53:20;;;;;;;2.92;1.40;;;19.30;54.70;;;;;;2313135;53;21030;-81
2023/02/20 12:58:55;;;;;;;4.45;1.65;;;19.20;55.30;;;;;;2545346;53;21066;-83
2023/02/20 13:01:21;;;;;;;3.70;1.42;;;19.20;54.90;;;;;;2309504;53;20995;-81
2023/02/20 13:04:06;;;;;;;3.62;1.30;;;19.20;55.40;;;;;;2546704;53;21051;-82
2023/02/20 13:07:02;;;;;;;3.28;1.27;;;19.10;54.90;;;;;;2547569;53;21011;-82
2023/02/20 13:09:41;;;;;;;3.80;1.27;;;19.10;53.70;;;;;;2547086;53;20995;-81
2023/02/20 13:12:10;;;;;;;3.03;1.17;;;19.00;54.30;;;;;;2312189;53;20957;-81
2023/02/20 13:15:14;;;;;;;3.53;1.20;;;19.00;54.90;;;;;;2547883;53;21163;-82
2023/02/20 13:18:04;;;;;;;2.53;1.02;;;19.10;54.20;;;;;;2540617;53;20976;-81
2023/02/20 13:20:34;;;;;;;4.22;1.20;;;19.10;54.20;;;;;;2546556;53;20946;-81
2023/02/20 13:23:01;;;;;;;3.05;1.20;;;19.10;54.80;;;;;;2312155;53;20935;-82
2023/02/20 13:25:44;;;;;;;3.03;1.20;;;19.10;54.70;;;;;;2549698;53;21571;-82
2023/02/20 13:28:52;;;;;;;3.47;1.23;;;19.10;54.00;;;;;;2549261;53;20919;-82
2023/02/20 13:31:24;;;;;;;2.85;1.00;;;19.10;53.70;;;;;;2311929;53;20995;-82
2023/02/20 13:34:22;;;;;;;2.67;0.75;;;19.20;54.80;;;;;;2308111;53;20976;-82
2023/02/20 13:36:49;;;;;;;2.53;0.90;;;19.20;54.80;;;;;;2549131;53;20967;-82
2023/02/20 13:39:35;;;;;;;2.62;1.40;;;19.30;54.90;;;;;;2310917;53;21058;-82
2023/02/20 13:42:26;;;;;;;2.78;1.17;;;19.30;53.70;;;;;;2311563;53;21022;-82
2023/02/20 13:44:52;;;;;;;2.25;0.70;;;19.40;54.10;;;;;;2547951;53;20978;-80
2023/02/20 13:47:37;;;;;;;2.10;0.70;;;19.40;54.50;;;;;;2548210;53;20931;-82
2023/02/20 13:50:26;;;;;;;3.30;1.10;;;19.40;53.50;;;;;;2548310;53;20975;-81
2023/02/20 13:52:55;;;;;;;2.58;0.98;;;19.50;53.10;;;;;;2310919;53;20975;-82
2023/02/20 13:55:23;;;;;;;3.17;1.20;;;19.50;54.30;;;;;;2547577;53;20985;-82
2023/02/20 13:58:23;;;;;;;3.60;1.23;;;19.60;54.40;;;;;;2314266;53;21040;-83
2023/02/20 14:00:52;;;;;;;2.10;0.90;;;19.70;53.40;;;;;;2306724;53;21752;-82
2023/02/20 14:03:28;;;;;;;4.28;1.20;;;19.80;54.60;;;;;;2312083;53;21011;-82